Time;durP1;ratioP1;P1;durP2;ratioP2;P2;SDS_P1;SDS_P2;PMS_P1;PMS_P2;Temp;Humidity;BMP_temperature;BMP_pressure;BME280_temperature;BME280_humidity;BME280_pressure;Samples;Min_cycle;Max_cycle;Signal;HPM_P1;HPM_P2
2022/02/07 00:01:05;;;;;;;0.30;0.17;;;;;;;2.17;100.00;97779.00;5000884;28;20624;-72
2022/02/07 00:03:45;;;;;;;0.28;0.20;;;;;;;2.17;100.00;97789.69;5008037;28;20026;-72
2022/02/07 00:06:13;;;;;;;3.60;0.30;;;;;;;2.29;100.00;97795.44;5014675;28;20100;-72
2022/02/07 00:08:38;;;;;;;2.38;0.25;;;;;;;2.34;100.00;97795.75;5018011;28;20022;-72
2022/02/07 00:11:04;;;;;;;3.03;0.13;;;;;;;2.10;100.00;97762.03;5017616;28;20037;-73
2022/02/07 00:13:29;;;;;;;1.52;0.20;;;;;;;2.37;100.00;97799.91;5007454;28;20068;-74
2022/02/07 00:15:55;;;;;;;0.65;0.17;;;;;;;2.38;100.00;97796.22;5015445;28;20036;-73
2022/02/07 00:18:22;;;;;;;0.55;0.30;;;;;;;2.46;100.00;97780.16;5015732;28;20096;-74
2022/02/07 00:20:47;;;;;;;0.68;0.25;;;;;;;2.52;100.00;97778.63;5011740;28;20053;-74
2022/02/07 00:23:13;;;;;;;2.70;0.43;;;;;;;2.53;100.00;97772.28;5015157;28;20029;-74
2022/02/07 00:25:38;;;;;;;0.73;0.20;;;;;;;2.39;100.00;97771.22;5007960;28;20080;-75
2022/02/07 00:28:03;;;;;;;0.30;0.10;;;;;;;2.46;100.00;97814.03;5015546;28;20021;-73
2022/02/07 00:30:29;;;;;;;0.47;0.20;;;;;;;2.53;100.00;97821.16;5010630;28;20026;-73
2022/02/07 00:32:54;;;;;;;3.20;0.63;;;;;;;2.55;100.00;97797.78;5015019;28;20054;-74
2022/02/07 00:35:23;;;;;;;0.38;0.17;;;;;;;2.74;100.00;97798.31;5012109;28;20029;-73
2022/02/07 00:37:50;;;;;;;0.40;0.20;;;;;;;2.78;100.00;97810.31;5009766;28;20021;-73
2022/02/07 00:40:32;;;;;;;1.27;0.30;;;;;;;2.51;100.00;97791.13;5010274;28;20631;-73
2022/02/07 00:43:12;;;;;;;2.88;0.20;;;;;;;2.70;100.00;97799.69;5004494;28;20034;-73
2022/02/07 00:48:05;;;;;;;0.17;0.10;;;;;;;2.66;100.00;97785.88;5015130;28;20084;-72
2022/02/07 00:50:32;;;;;;;0.25;0.15;;;;;;;2.57;100.00;97793.09;5016204;28;20060;-73
2022/02/07 00:52:58;;;;;;;0.82;0.20;;;;;;;2.70;100.00;97831.72;5008668;28;20076;-73
2022/02/07 00:55:24;;;;;;;0.55;0.20;;;;;;;2.57;100.00;97789.63;5027066;28;20037;-72
2022/02/07 00:57:49;;;;;;;0.15;0.13;;;;;;;2.79;100.00;97820.00;5034047;28;20025;-73
2022/02/07 01:00:16;;;;;;;0.22;0.10;;;;;;;2.73;100.00;97826.88;5021308;28;20034;-74
2022/02/07 01:02:43;;;;;;;0.00;0.00;;;;;;;2.71;100.00;97844.09;5017862;28;20084;-73
2022/02/07 01:05:10;;;;;;;0.35;0.20;;;;;;;2.68;100.00;97858.63;5015605;28;20053;-74
2022/02/07 01:07:35;;;;;;;0.45;0.20;;;;;;;2.62;100.00;97854.81;5013752;28;20100;-75
2022/02/07 01:10:01;;;;;;;0.73;0.20;;;;;;;2.61;100.00;97863.81;5003428;28;20109;-73
2022/02/07 01:15:19;;;;;;;1.35;0.20;;;;;;;2.72;100.00;97916.00;5015706;28;20037;-71
2022/02/07 01:55:34;;;;;;;0.40;0.13;;;;;;;3.12;98.14;98031.69;4990719;28;20033;-74
2022/02/07 01:58:00;;;;;;;0.52;0.28;;;;;;;3.19;98.55;98062.03;5009947;28;20054;-73
2022/02/07 02:00:26;;;;;;;2.80;0.20;;;;;;;3.04;99.06;98042.44;5010523;28;20552;-73
2022/02/07 02:02:52;;;;;;;1.42;0.20;;;;;;;3.06;99.56;98053.75;5016218;28;20036;-73
2022/02/07 02:05:17;;;;;;;2.25;0.15;;;;;;;3.00;99.15;98051.78;5014136;28;20435;-72
2022/02/07 02:07:43;;;;;;;2.95;0.40;;;;;;;3.19;98.70;98075.41;5012465;28;20065;-73
2022/02/07 02:10:10;;;;;;;1.58;0.17;;;;;;;3.16;96.25;98086.44;5012663;28;20026;-73
2022/02/07 02:12:46;;;;;;;0.93;0.22;;;;;;;3.26;94.18;98092.44;5029341;28;20029;-71
2022/02/07 02:21:01;;;;;;;2.25;0.40;;;;;;;2.67;94.98;98089.28;5036977;28;20052;-72
2022/02/07 02:46:53;;;;;;;2.63;0.30;;;;;;;2.73;91.13;98189.28;5025178;28;20032;-73
2022/02/07 02:49:18;;;;;;;0.90;0.40;;;;;;;2.63;92.15;98182.28;5008152;28;20447;-72
2022/02/07 02:51:43;;;;;;;7.47;0.45;;;;;;;2.64;88.64;98164.41;5009778;28;20018;-73
2022/02/07 02:54:09;;;;;;;1.25;0.28;;;;;;;2.87;89.36;98211.81;5037828;28;20076;-72
2022/02/07 02:56:35;;;;;;;1.23;0.30;;;;;;;2.68;87.40;98165.75;5014625;28;20050;-72
2022/02/07 02:59:01;;;;;;;0.75;0.30;;;;;;;2.79;88.58;98201.97;5006053;28;20026;-75
2022/02/07 03:01:27;;;;;;;0.98;0.40;;;;;;;2.70;89.54;98205.63;5008199;28;20472;-72
2022/02/07 03:03:52;;;;;;;1.80;0.40;;;;;;;2.64;91.44;98213.31;5013871;28;20030;-70
2022/02/07 03:06:17;;;;;;;5.53;0.50;;;;;;;2.53;91.92;98228.84;5015148;28;20022;-71
2022/02/07 03:08:43;;;;;;;3.75;0.47;;;;;;;2.63;93.67;98272.25;5013262;28;20065;-73
2022/02/07 03:11:16;;;;;;;1.23;0.40;;;;;;;2.58;92.88;98271.91;5014208;28;20560;-71
2022/02/07 03:13:56;;;;;;;4.60;0.75;;;;;;;2.61;94.10;98285.75;5013732;28;20018;-71
2022/02/07 03:16:38;;;;;;;3.63;0.50;;;;;;;2.67;92.94;98302.13;5025861;28;20017;-71
2022/02/07 03:19:10;;;;;;;1.25;0.35;;;;;;;2.61;94.78;98287.59;5009894;28;20029;-71
2022/02/07 03:21:35;;;;;;;2.00;0.40;;;;;;;2.68;94.92;98325.16;5019098;28;20048;-72
2022/02/07 03:24:01;;;;;;;0.88;0.32;;;;;;;2.67;94.76;98326.97;5025320;28;20029;-71
2022/02/07 03:26:28;;;;;;;2.17;0.50;;;;;;;2.79;93.96;98328.34;5014963;28;20022;-71
2022/02/07 03:28:53;;;;;;;2.65;0.30;;;;;;;2.83;91.50;98336.88;5014311;28;20053;-70
2022/02/07 03:31:20;;;;;;;3.45;0.43;;;;;;;2.79;94.10;98368.41;5014798;28;20041;-71
2022/02/07 03:33:45;;;;;;;2.03;0.32;;;;;;;2.69;95.45;98378.41;5015131;28;20435;-72
2022/02/07 03:36:13;;;;;;;1.95;0.40;;;;;;;2.71;97.04;98400.44;5016424;28;20018;-71
2022/02/07 03:38:39;;;;;;;1.58;0.28;;;;;;;2.55;97.72;98374.53;5018120;28;20483;-71
2022/02/07 03:41:05;;;;;;;4.95;0.20;;;;;;;2.44;98.59;98377.53;5026624;28;20048;-71
2022/02/07 03:43:30;;;;;;;1.20;0.35;;;;;;;2.36;98.88;98402.34;5028095;28;20435;-71
2022/02/07 03:45:56;;;;;;;4.45;0.35;;;;;;;2.30;98.06;98402.16;5017933;28;20104;-72
2022/02/07 03:48:21;;;;;;;3.03;0.47;;;;;;;2.37;98.49;98456.56;5003797;28;20034;-71
2022/02/07 03:50:46;;;;;;;0.75;0.45;;;;;;;2.28;98.88;98461.06;5007292;28;20022;-71
2022/02/07 03:53:12;;;;;;;0.47;0.13;;;;;;;1.98;100.00;98441.84;5022579;28;20530;-71
2022/02/07 03:55:39;;;;;;;2.10;0.35;;;;;;;1.98;100.00;98470.38;5032408;28;20109;-71
2022/02/07 03:58:05;;;;;;;2.45;0.38;;;;;;;2.01;100.00;98496.72;5019360;28;20030;-72
2022/02/07 04:00:32;;;;;;;1.15;0.30;;;;;;;1.91;100.00;98499.53;5023425;28;20083;-72
2022/02/07 04:03:02;;;;;;;1.15;0.20;;;;;;;1.80;100.00;98507.75;5023889;28;20018;-71
2022/02/07 04:07:59;;;;;;;0.50;0.30;;;;;;;1.39;100.00;98499.44;5026128;28;19921;-76
2022/02/07 04:10:26;;;;;;;0.75;0.20;;;;;;;1.46;100.00;98521.78;5022989;28;20026;-76
2022/02/07 04:12:59;;;;;;;0.82;0.20;;;;;;;1.38;100.00;98518.22;5019440;28;20029;-75
2022/02/07 04:15:24;;;;;;;2.92;0.20;;;;;;;1.38;100.00;98551.03;5019466;28;20022;-76
2022/02/07 04:18:03;;;;;;;1.48;0.30;;;;;;;1.09;100.00;98544.06;5017991;28;20052;-76
2022/02/07 04:20:28;;;;;;;0.57;0.22;;;;;;;1.04;100.00;98549.00;5015930;28;20567;-76
2022/02/07 04:22:54;;;;;;;1.67;0.20;;;;;;;0.89;100.00;98561.13;5012867;28;20031;-77
2022/02/07 04:25:19;;;;;;;0.55;0.20;;;;;;;0.92;100.00;98568.88;5017063;28;20037;-77
2022/02/07 04:27:45;;;;;;;4.25;0.40;;;;;;;0.83;100.00;98575.06;5017486;28;20025;-78
2022/02/07 04:30:11;;;;;;;1.85;0.35;;;;;;;0.47;100.00;98540.31;5017893;28;20521;-78
2022/02/07 04:32:37;;;;;;;0.65;0.20;;;;;;;0.88;100.00;98618.06;5021686;28;20056;-76
2022/02/07 04:35:03;;;;;;;4.68;0.52;;;;;;;0.83;100.00;98594.53;5017716;28;20018;-77
2022/02/07 04:37:28;;;;;;;3.53;0.60;;;;;;;1.03;100.00;98642.41;5015137;28;20060;-77
2022/02/07 04:39:54;;;;;;;0.30;0.30;;;;;;;1.02;100.00;98627.41;5026927;28;20101;-78
2022/02/07 04:42:22;;;;;;;7.65;1.17;;;;;;;1.01;100.00;98653.19;5031996;28;20026;-76
2022/02/07 04:45:07;;;;;;;2.45;0.40;;;;;;;1.01;100.00;98650.53;5034492;28;20052;-77
2022/02/07 04:48:10;;;;;;;3.92;0.25;;;;;;;1.08;100.00;98648.97;5037358;28;20022;-78
2022/02/07 04:50:42;;;;;;;1.98;0.28;;;;;;;1.09;100.00;98650.63;5036506;28;20017;-82
2022/02/07 04:53:38;;;;;;;3.03;0.40;;;;;;;0.93;100.00;98639.78;5071318;28;20026;-78
2022/02/07 04:57:01;;;;;;;1.00;0.30;;;;;;;0.89;100.00;98646.38;5043879;28;20094;-73
2022/02/07 04:59:08;;;;;;;1.33;0.40;;;;;;;1.06;100.00;98690.91;5036177;28;20036;-79
2022/02/07 05:01:43;;;;;;;0.68;0.40;;;;;;;1.06;100.00;98685.56;5036114;28;20032;-75
2022/02/07 05:04:20;;;;;;;0.63;0.22;;;;;;;1.00;100.00;98680.84;5035597;28;20014;-75
2022/02/07 05:15:00;;;;;;;1.40;0.28;;;;;;;0.93;100.00;98730.34;5032113;28;20092;-74
2022/02/07 05:17:27;;;;;;;2.28;0.45;;;;;;;0.97;100.00;98733.53;5031707;28;20038;-74
2022/02/07 05:19:52;;;;;;;0.73;0.30;;;;;;;1.13;100.00;98763.13;5029512;28;20029;-73
2022/02/07 05:22:17;;;;;;;1.65;0.32;;;;;;;1.23;100.00;98771.91;5028896;28;20044;-71
2022/02/07 05:24:43;;;;;;;5.00;0.57;;;;;;;1.19;100.00;98759.84;5032527;28;20144;-76
2022/02/07 05:27:08;;;;;;;0.73;0.32;;;;;;;1.27;100.00;98770.63;5028783;28;20037;-73
2022/02/07 05:29:35;;;;;;;0.88;0.25;;;;;;;1.29;99.16;98773.16;5029586;28;20038;-75
2022/02/07 05:32:02;;;;;;;1.27;0.35;;;;;;;1.38;98.01;98774.09;5029069;28;20048;-75
2022/02/07 05:34:27;;;;;;;1.75;0.57;;;;;;;1.27;97.64;98769.78;5032413;28;20025;-77
2022/02/07 05:36:55;;;;;;;3.80;0.40;;;;;;;1.02;97.35;98737.47;5035541;28;20057;-77
2022/02/07 05:39:33;;;;;;;1.00;0.30;;;;;;;1.18;97.97;98802.63;5034392;28;20057;-78
2022/02/07 05:42:04;;;;;;;0.70;0.20;;;;;;;0.95;98.40;98789.66;5029508;28;20018;-77
2022/02/07 05:44:29;;;;;;;5.65;0.50;;;;;;;0.98;96.94;98792.00;5034484;28;20052;-76
2022/02/07 05:46:55;;;;;;;2.70;0.70;;;;;;;0.96;97.48;98788.66;5035503;28;20069;-75
2022/02/07 05:49:22;;;;;;;6.50;0.60;;;;;;;1.18;95.84;98826.59;5033994;28;20109;-75
2022/02/07 05:51:48;;;;;;;4.95;0.40;;;;;;;1.05;96.68;98821.59;5030216;28;20033;-70
2022/02/07 05:54:14;;;;;;;5.35;0.55;;;;;;;1.06;95.84;98841.94;5027449;28;20124;-76
2022/02/07 05:56:39;;;;;;;3.85;0.50;;;;;;;1.04;95.54;98841.22;5020468;28;20097;-76
2022/02/07 05:59:05;;;;;;;3.30;0.60;;;;;;;0.81;94.47;98801.59;5013015;28;20136;-73
2022/02/07 06:01:30;;;;;;;4.90;0.50;;;;;;;1.07;95.06;98841.78;5014369;28;20064;-76
2022/02/07 06:03:55;;;;;;;6.80;0.93;;;;;;;1.01;95.14;98834.34;5017190;28;20060;-75
2022/02/07 06:06:20;;;;;;;2.15;0.47;;;;;;;1.23;93.40;98862.53;5017421;28;20026;-77
2022/02/07 06:08:50;;;;;;;6.13;0.98;;;;;;;1.31;93.93;98867.16;5025743;28;20057;-75
2022/02/07 06:11:15;;;;;;;2.10;0.70;;;;;;;1.18;92.74;98847.94;5024155;28;20053;-74
2022/02/07 06:13:44;;;;;;;4.72;0.85;;;;;;;1.51;91.42;98887.44;5023705;28;20076;-75
2022/02/07 06:16:14;;;;;;;2.72;1.27;;;;;;;1.44;90.03;98875.69;5020022;28;20025;-71
2022/02/07 06:18:39;;;;;;;4.72;0.77;;;;;;;1.61;90.13;98897.25;5017983;28;20093;-71
2022/02/07 06:21:07;;;;;;;3.65;0.80;;;;;;;1.65;90.56;98904.81;5016897;28;20056;-75
2022/02/07 06:23:33;;;;;;;6.82;1.00;;;;;;;1.58;90.07;98903.72;5016250;28;20029;-72
2022/02/07 06:25:59;;;;;;;6.68;0.80;;;;;;;1.68;90.10;98920.53;5017506;28;20028;-71
2022/02/07 06:28:25;;;;;;;7.35;0.85;;;;;;;1.66;90.38;98925.16;5022243;28;20038;-79
2022/02/07 06:30:51;;;;;;;3.75;0.63;;;;;;;1.39;89.64;98898.41;5030661;28;20088;-75
2022/02/07 06:33:17;;;;;;;6.80;0.60;;;;;;;1.37;89.71;98898.56;5025101;28;20073;-76
2022/02/07 06:35:45;;;;;;;3.17;0.65;;;;;;;1.42;90.94;98919.47;5027010;28;20045;-74
2022/02/07 06:38:10;;;;;;;3.00;0.57;;;;;;;1.47;91.05;98935.88;5028474;28;20060;-76
2022/02/07 06:40:36;;;;;;;4.00;1.00;;;;;;;1.42;90.81;98920.28;5028187;28;20033;-79
2022/02/07 06:43:01;;;;;;;6.75;1.20;;;;;;;1.44;90.02;98915.66;5030641;28;20049;-74
2022/02/07 06:45:26;;;;;;;2.78;0.35;;;;;;;1.54;88.86;98927.13;5029692;28;20033;-77
2022/02/07 06:48:04;;;;;;;4.50;0.88;;;;;;;1.73;88.68;98954.78;5026589;28;20109;-78
2022/02/07 06:50:29;;;;;;;5.07;0.80;;;;;;;1.69;88.33;98937.38;5027135;28;20042;-77
2022/02/07 06:52:55;;;;;;;3.10;0.52;;;;;;;1.59;87.82;98904.53;5029306;28;20060;-76
2022/02/07 06:55:20;;;;;;;6.05;0.57;;;;;;;1.85;87.14;98956.28;5030108;28;20030;-79
2022/02/07 06:57:45;;;;;;;5.75;0.88;;;;;;;1.90;86.12;98958.53;5028090;28;20037;-79
2022/02/07 07:00:11;;;;;;;7.07;0.73;;;;;;;1.64;85.31;98923.63;5032792;28;20026;-78
2022/02/07 07:02:38;;;;;;;3.50;0.63;;;;;;;1.85;86.45;98969.63;5035473;28;20069;-79
2022/02/07 07:05:11;;;;;;;7.10;0.60;;;;;;;2.07;85.83;99012.94;5027908;28;20009;-70
2022/02/07 07:07:37;;;;;;;4.55;1.00;;;;;;;2.04;84.82;98986.56;5029335;28;20036;-80
2022/02/07 07:10:05;;;;;;;4.55;0.85;;;;;;;2.11;84.24;98987.66;5029367;28;20021;-74
2022/02/07 07:12:30;;;;;;;4.47;0.70;;;;;;;2.18;83.47;98994.13;5025997;28;20060;-72
2022/02/07 07:15:13;;;;;;;7.28;1.27;;;;;;;2.17;85.07;99003.97;5024825;28;20026;-70
2022/02/07 07:17:39;;;;;;;3.30;0.75;;;;;;;2.11;85.67;99017.88;5025726;28;20022;-69
2022/02/07 07:20:06;;;;;;;7.03;0.65;;;;;;;2.07;85.24;99016.50;5024165;28;20068;-70
2022/02/07 07:22:32;;;;;;;6.70;0.60;;;;;;;2.08;85.15;99015.50;5025525;28;20128;-72
2022/02/07 07:24:59;;;;;;;5.32;0.52;;;;;;;2.13;84.15;99031.91;5024833;28;20019;-74
2022/02/07 07:27:30;;;;;;;4.95;0.90;;;;;;;2.29;83.56;99039.31;5025379;28;20061;-76
2022/02/07 07:29:56;;;;;;;4.93;0.50;;;;;;;2.18;82.60;99008.31;5024297;28;20022;-76
2022/02/07 07:32:26;;;;;;;1.15;0.60;;;;;;;2.31;82.61;99026.69;5030507;28;20041;-74
2022/02/07 07:34:51;;;;;;;6.45;1.40;;;;;;;2.30;82.45;99010.78;5029693;28;20030;-75
2022/02/07 07:37:17;;;;;;;4.68;0.82;;;;;;;2.54;81.07;99050.34;5028478;28;20036;-75
2022/02/07 07:39:42;;;;;;;7.97;0.75;;;;;;;3.02;79.86;99054.63;5029414;28;20089;-78
2022/02/07 07:42:09;;;;;;;6.13;0.63;;;;;;;2.62;79.69;99007.72;5025022;28;20014;-77
2022/02/07 07:44:36;;;;;;;3.70;0.63;;;;;;;2.74;80.46;99075.16;5025347;28;20112;-71
2022/02/07 07:47:13;;;;;;;3.53;0.70;;;;;;;2.53;81.45;99075.38;5026727;28;20034;-73
2022/02/07 07:49:51;;;;;;;3.55;0.90;;;;;;;2.48;82.35;99075.78;5034693;28;20949;-75
2022/02/07 07:52:28;;;;;;;3.95;0.80;;;;;;;2.52;82.87;99081.72;5018513;28;20053;-75
2022/02/07 07:55:20;;;;;;;3.88;0.63;;;;;;;2.33;84.04;99053.22;5024129;28;20010;-75
2022/02/07 08:03:08;;;;;;;9.52;3.20;;;;;;;2.41;82.38;99066.69;5025964;28;20032;-79
2022/02/07 08:08:08;;;;;;;5.68;1.10;;;;;;;2.59;82.46;99072.97;5019861;28;20029;-73
2022/02/07 08:13:31;;;;;;;6.35;0.80;;;;;;;2.87;80.34;99133.63;5011454;28;20073;-81
2022/02/07 08:15:56;;;;;;;4.32;0.70;;;;;;;2.73;79.16;99125.09;5019696;28;20078;-75
2022/02/07 08:18:22;;;;;;;4.05;0.95;;;;;;;2.93;78.91;99157.06;5024758;28;20037;-66
2022/02/07 08:20:47;;;;;;;4.80;0.70;;;;;;;2.95;78.97;99163.13;5025725;28;20082;-75
2022/02/07 08:23:12;;;;;;;6.13;0.70;;;;;;;2.83;78.71;99143.75;5025360;28;20033;-76
2022/02/07 08:25:38;;;;;;;5.97;1.00;;;;;;;2.83;79.02;99146.44;5026652;28;20037;-76
2022/02/07 08:28:04;;;;;;;3.35;0.70;;;;;;;3.04;78.97;99172.94;5025812;28;20033;-74
2022/02/07 08:30:29;;;;;;;4.05;0.60;;;;;;;2.99;77.57;99157.34;5024081;28;20034;-77
2022/02/07 08:32:57;;;;;;;2.28;0.52;;;;;;;3.16;77.10;99190.47;5027551;28;20025;-80
2022/02/07 08:35:22;;;;;;;6.38;0.50;;;;;;;3.03;77.53;99165.91;5027746;28;20006;-78
2022/02/07 08:38:19;;;;;;;2.97;0.60;;;;;;;2.87;76.85;99136.28;5029185;28;20034;-82
2022/02/07 08:40:46;;;;;;;;;;;;;;;3.37;77.17;99205.44;5030468;28;20034;-77
2022/02/07 08:43:12;;;;;;;4.20;0.93;;;;;;;3.18;76.37;99156.41;5030232;28;19953;-78
2022/02/07 08:45:38;;;;;;;2.13;0.50;;;;;;;3.41;74.98;99214.88;5024606;28;20026;-85
2022/02/07 08:48:06;;;;;;;4.80;1.00;;;;;;;3.41;76.93;99238.94;5028270;28;20105;-87
2022/02/07 08:50:32;;;;;;;4.65;0.75;;;;;;;3.05;77.98;99215.56;5024860;28;20022;-79
2022/02/07 08:53:00;;;;;;;6.55;0.98;;;;;;;2.95;77.85;99193.34;5027162;28;20041;-71
2022/02/07 08:55:50;;;;;;;3.95;1.02;;;;;;;3.14;79.02;99216.50;5016336;28;20049;-74
2022/02/07 08:58:18;;;;;;;3.55;1.23;;;;;;;3.13;78.25;99233.53;5013427;28;20037;-71
2022/02/07 09:01:03;;;;;;;7.37;1.40;;;;;;;3.28;79.38;99264.19;5021553;28;20032;-76
2022/02/07 09:03:56;;;;;;;3.55;1.20;;;;;;;3.34;79.40;99257.41;5021197;28;20525;-73
2022/02/07 09:09:17;;;;;;;3.80;1.67;;;;;;;3.54;77.66;99281.38;5008978;28;20086;-77
2022/02/07 09:11:43;;;;;;;3.40;1.13;;;;;;;3.42;77.87;99267.38;5006696;28;20056;-75
2022/02/07 09:14:11;;;;;;;10.95;1.33;;;;;;;3.42;75.87;99270.03;5009586;28;20030;-79
2022/02/07 09:17:13;;;;;;;4.60;1.02;;;;;;;3.55;76.06;99289.28;5013169;28;20128;-85
2022/02/07 09:19:40;;;;;;;3.25;0.70;;;;;;;3.67;76.50;99272.06;5015255;28;20053;-75
2022/02/07 09:22:06;;;;;;;6.88;0.75;;;;;;;3.69;75.47;99293.31;5007641;28;20030;-76
2022/02/07 09:24:31;;;;;;;4.85;1.08;;;;;;;3.91;75.93;99313.50;5006325;28;20033;-76
2022/02/07 09:26:57;;;;;;;2.95;0.70;;;;;;;3.85;74.24;99292.66;5008006;28;20116;-75
2022/02/07 09:29:22;;;;;;;3.28;0.80;;;;;;;4.17;73.75;99321.69;5008670;28;20158;-81
2022/02/07 09:31:48;;;;;;;7.45;1.20;;;;;;;4.14;72.32;99297.88;5007078;28;20035;-80
2022/02/07 09:34:13;;;;;;;8.88;2.13;;;;;;;4.16;74.12;99307.44;5010377;28;20034;-73
2022/02/07 09:36:39;;;;;;;8.82;1.70;;;;;;;4.23;72.48;99298.81;5008371;28;20128;-80
2022/02/07 09:39:05;;;;;;;5.80;0.95;;;;;;;4.29;73.64;99282.97;5011494;28;20029;-78
2022/02/07 09:41:33;;;;;;;6.90;1.00;;;;;;;4.44;73.47;99326.16;5013488;28;20022;-77
2022/02/07 09:44:01;;;;;;;12.77;2.28;;;;;;;4.60;73.93;99310.25;5001779;28;20076;-77
2022/02/07 09:46:45;;;;;;;8.67;2.60;;;;;;;4.99;71.50;99320.66;5007839;28;20553;-79
2022/02/07 09:49:13;;;;;;;5.82;1.25;;;;;;;4.42;72.44;99325.47;5008513;28;20034;-80
2022/02/07 09:51:43;;;;;;;7.97;2.20;;;;;;;4.87;71.14;99326.41;5007300;28;20049;-78
2022/02/07 09:54:09;;;;;;;;;;;;;;;5.05;71.89;99348.69;5010599;28;20108;-76
2022/02/07 09:56:34;;;;;;;9.80;3.25;;;;;;;4.90;71.76;99302.81;5009826;28;19917;-79
2022/02/07 09:59:00;;;;;;;10.90;1.85;;;;;;;4.80;69.36;99318.97;5007078;28;20563;-73
2022/02/07 10:01:31;;;;;;;8.82;2.53;;;;;;;4.93;70.34;99369.53;5000933;28;20033;-68
2022/02/07 10:04:07;;;;;;;7.32;1.40;;;;;;;4.89;69.76;99365.47;4998792;28;21748;-70
2022/02/07 10:06:49;;;;;;;3.90;0.90;;;;;;;4.79;70.61;99365.56;4998714;28;20036;-71
2022/02/07 10:09:39;;;;;;;5.85;0.90;;;;;;;4.81;70.88;99362.72;4999830;28;20124;-72
2022/02/07 10:15:04;;;;;;;5.85;0.82;;;;;;;5.02;68.54;99383.84;4996529;28;20072;-71
2022/02/07 10:18:01;;;;;;;4.97;1.05;;;;;;;5.08;68.50;99380.53;4998511;28;20026;-70
2022/02/07 10:34:39;;;;;;;5.25;0.95;;;;;;;6.07;65.59;99412.50;5015477;28;20060;-74
2022/02/07 10:39:56;;;;;;;5.45;1.02;;;;;;;5.70;65.89;99421.63;5012261;28;20037;-80
2022/02/07 10:44:59;;;;;;;6.07;1.00;;;;;;;5.10;68.50;99407.22;5015003;28;20037;-80
2022/02/07 10:47:37;;;;;;;6.50;1.15;;;;;;;4.90;67.98;99433.34;5024563;28;20057;-76
2022/02/07 10:50:05;;;;;;;8.50;1.30;;;;;;;5.00;69.58;99439.47;5014557;28;20026;-74
2022/02/07 10:52:49;;;;;;;6.18;1.00;;;;;;;4.79;69.58;99427.22;5001549;28;20030;-76
2022/02/07 10:55:43;;;;;;;4.85;0.75;;;;;;;4.98;68.42;99441.50;5003171;28;20111;-78
2022/02/07 10:58:08;;;;;;;5.63;1.25;;;;;;;4.79;69.72;99423.66;5001605;28;20036;-76
2022/02/07 11:00:42;;;;;;;5.30;1.10;;;;;;;4.91;67.66;99451.97;5005945;28;20221;-74
2022/02/07 11:03:16;;;;;;;7.22;0.95;;;;;;;4.73;66.89;99461.81;5011509;28;20074;-73
2022/02/07 11:05:46;;;;;;;8.48;1.50;;;;;;;4.70;68.13;99470.16;5009416;28;20064;-74
2022/02/07 11:16:22;;;;;;;4.97;0.98;;;;;;;4.53;70.02;99515.53;5006691;28;20037;-72
2022/02/07 11:19:28;;;;;;;12.10;2.83;;;;;;;4.54;70.26;99527.91;5003411;28;20022;-72
2022/02/07 11:22:09;;;;;;;14.73;1.95;;;;;;;4.50;69.23;99534.53;5005936;28;20038;-72
2022/02/07 11:27:49;;;;;;;9.77;2.30;;;;;;;4.37;71.67;99550.09;5008201;28;20040;-77
2022/02/07 11:30:17;;;;;;;6.05;2.00;;;;;;;4.35;71.41;99557.47;5004434;28;20030;-75
2022/02/07 11:32:43;;;;;;;22.85;5.18;;;;;;;4.34;71.36;99550.38;5006236;28;20038;-72
2022/02/07 11:35:28;;;;;;;6.10;1.77;;;;;;;4.37;71.07;99550.09;5004871;28;20054;-76
2022/02/07 11:38:10;;;;;;;7.90;1.70;;;;;;;4.32;71.97;99579.16;5006857;28;20033;-76
2022/02/07 11:40:38;;;;;;;7.32;2.60;;;;;;;4.31;72.07;99572.97;5005232;28;20034;-74
2022/02/07 11:43:23;;;;;;;5.50;1.00;;;;;;;4.09;71.89;99549.19;5006268;28;20037;-75
2022/02/07 11:45:56;;;;;;;5.45;2.05;;;;;;;4.22;71.77;99589.91;5001894;28;20504;-79
2022/02/07 11:48:45;;;;;;;8.18;1.63;;;;;;;4.07;72.20;99576.09;5023850;28;20957;-78
2022/02/07 11:51:17;;;;;;;5.75;1.63;;;;;;;4.14;72.15;99595.13;5008730;28;20034;-77
2022/02/07 11:53:49;;;;;;;3.35;0.98;;;;;;;4.41;72.00;99614.97;5004249;28;20037;-74
2022/02/07 11:56:29;;;;;;;4.82;0.98;;;;;;;4.31;71.28;99621.19;5002008;28;20120;-75
2022/02/07 11:58:57;;;;;;;7.43;0.95;;;;;;;4.45;72.24;99625.22;5015323;28;20029;-82
2022/02/07 12:01:48;;;;;;;3.95;1.00;;;;;;;4.39;71.49;99639.22;5015197;28;20033;-80
2022/02/07 12:04:24;;;;;;;5.10;0.80;;;;;;;4.29;72.69;99620.47;5008540;28;20033;-73
2022/02/07 12:07:05;;;;;;;3.78;0.80;;;;;;;4.43;71.78;99637.94;5003855;28;20034;-69
2022/02/07 12:09:30;;;;;;;7.32;1.05;;;;;;;4.51;70.99;99638.06;5005125;28;20029;-70
2022/02/07 12:11:55;;;;;;;6.40;1.00;;;;;;;4.46;70.81;99645.69;5014786;28;20068;-70
2022/02/07 12:14:32;;;;;;;4.18;1.00;;;;;;;4.44;71.36;99650.34;5013603;28;20022;-71
2022/02/07 12:16:58;;;;;;;3.92;1.33;;;;;;;4.53;72.10;99646.81;5011174;28;20030;-71
2022/02/07 12:19:40;;;;;;;7.43;1.40;;;;;;;4.60;72.35;99653.28;5009701;28;20041;-70
2022/02/07 12:22:14;;;;;;;5.93;0.95;;;;;;;4.65;70.67;99650.16;5009129;28;20043;-70
2022/02/07 12:24:57;;;;;;;7.57;1.10;;;;;;;4.70;71.62;99652.41;5010840;28;20090;-69
2022/02/07 12:27:24;;;;;;;12.10;1.10;;;;;;;4.67;70.42;99653.56;5013334;28;20030;-70
2022/02/07 12:30:46;;;;;;;8.75;1.23;;;;;;;4.67;71.20;99653.56;5009863;28;20053;-71
2022/02/07 12:32:35;;;;;;;5.40;1.33;;;;;;;4.56;70.48;99634.97;5004753;28;20399;-71
2022/02/07 12:35:03;;;;;;;6.22;1.15;;;;;;;4.63;71.41;99636.06;5007675;28;20028;-70
2022/02/07 12:37:34;;;;;;;8.10;1.13;;;;;;;4.82;70.17;99673.56;5017650;28;20037;-70
2022/02/07 12:40:04;;;;;;;6.40;1.48;;;;;;;4.66;71.39;99667.09;5012214;28;20052;-69
2022/02/07 12:42:30;;;;;;;10.40;1.58;;;;;;;4.82;71.13;99651.25;5012889;28;20032;-70
2022/02/07 12:44:59;;;;;;;6.18;0.95;;;;;;;4.98;71.25;99661.38;5009154;28;20825;-70
2022/02/07 12:47:24;;;;;;;;;;;;;;;4.96;71.30;99664.19;5011183;28;20041;-69
2022/02/07 12:49:51;;;;;;;5.40;1.00;;;;;;;4.79;71.02;99660.44;5010759;28;19960;-72
2022/02/07 12:52:17;;;;;;;5.50;1.33;;;;;;;4.87;70.61;99672.25;5011972;28;20080;-72
2022/02/07 12:54:42;;;;;;;3.92;1.20;;;;;;;4.78;71.81;99676.66;5011589;28;20026;-72
2022/02/07 12:57:08;;;;;;;7.68;1.55;;;;;;;4.88;71.27;99672.13;5012986;28;20025;-73
2022/02/07 12:59:33;;;;;;;6.35;1.15;;;;;;;4.68;71.63;99659.75;5009000;28;20268;-74
2022/02/07 13:01:59;;;;;;;6.03;1.05;;;;;;;4.64;71.29;99639.56;5008098;28;20029;-74
2022/02/07 13:04:24;;;;;;;9.45;1.52;;;;;;;4.66;71.40;99641.13;5013395;28;20091;-73
2022/02/07 13:06:56;;;;;;;6.32;1.23;;;;;;;4.88;71.33;99665.94;5013093;28;20391;-72
2022/02/07 13:09:25;;;;;;;4.90;1.00;;;;;;;4.94;71.86;99676.91;5007141;28;20061;-72
2022/02/07 13:12:12;;;;;;;7.82;1.73;;;;;;;5.44;69.81;99681.91;5008380;28;20061;-73
2022/02/07 13:14:43;;;;;;;3.63;0.80;;;;;;;7.43;63.31;99676.22;5020684;28;20025;-73
2022/02/07 13:17:10;;;;;;;4.57;1.27;;;;;;;9.13;57.89;99649.59;5011598;28;20065;-72
2022/02/07 13:19:38;;;;;;;5.13;1.02;;;;;;;9.75;55.16;99650.69;5005350;28;20030;-71
2022/02/07 13:22:04;;;;;;;5.75;0.90;;;;;;;8.69;56.59;99659.94;5015873;28;20037;-72
2022/02/07 13:24:32;;;;;;;10.73;1.20;;;;;;;8.67;57.45;99694.34;5008811;28;20096;-71
2022/02/07 13:27:00;;;;;;;11.93;1.30;;;;;;;7.41;60.66;99699.75;5008633;28;20024;-73
2022/02/07 13:29:41;;;;;;;2.33;0.98;;;;;;;6.57;63.29;99685.94;5011544;28;20059;-75
2022/02/07 13:32:07;;;;;;;7.28;1.33;;;;;;;5.86;65.29;99678.69;5012301;28;20025;-78
2022/02/07 13:34:36;;;;;;;6.32;1.55;;;;;;;5.89;66.84;99709.78;5012491;28;20116;-78
2022/02/07 13:37:10;;;;;;;10.60;2.33;;;;;;;5.74;68.61;99712.16;5012819;28;20029;-75
2022/02/07 13:39:56;;;;;;;6.38;1.83;;;;;;;5.46;68.58;99696.03;5014169;28;20018;-74
2022/02/07 13:42:25;;;;;;;8.27;1.42;;;;;;;5.30;69.23;99698.53;5012116;28;20126;-74
2022/02/07 13:44:50;;;;;;;;;;;;;;;5.44;69.65;99699.88;5004612;28;20030;-73
2022/02/07 13:47:19;;;;;;;7.20;1.63;;;;;;;5.17;68.32;99693.47;5011679;28;19920;-73
2022/02/07 13:49:58;;;;;;;3.20;1.20;;;;;;;4.97;69.42;99702.56;5014136;28;20034;-72
2022/02/07 13:52:29;;;;;;;7.50;1.33;;;;;;;4.99;69.88;99695.25;5012411;28;20025;-75
2022/02/07 13:55:28;;;;;;;10.00;2.10;;;;;;;4.99;70.26;99695.25;5010228;28;20024;-74
2022/02/07 13:58:04;;;;;;;7.00;2.22;;;;;;;4.85;71.34;99718.00;5011762;28;20038;-76
2022/02/07 14:00:35;;;;;;;11.85;1.95;;;;;;;5.40;68.87;99711.91;5012631;28;20037;-73
2022/02/07 14:03:04;;;;;;;10.00;1.52;;;;;;;5.74;66.74;99733.63;5007852;28;20026;-74
2022/02/07 14:05:45;;;;;;;6.88;1.42;;;;;;;6.21;66.03;99717.41;5005149;28;20097;-76